sensor_id;sensor_type;location;lat;lon;timestamp;temperature;humidity
18508;DHT22;9383;50.928;12.116;2022-07-09T00:02:06;14.50;97.00
18508;DHT22;9383;50.928;12.116;2022-07-09T00:04:32;14.40;97.00
18508;DHT22;9383;50.928;12.116;2022-07-09T00:06:59;14.40;97.00
18508;DHT22;9383;50.928;12.116;2022-07-09T00:09:26;14.40;97.00
18508;DHT22;9383;50.928;12.116;2022-07-09T00:11:52;14.40;97.00
18508;DHT22;9383;50.928;12.116;2022-07-09T00:14:19;14.40;97.10
18508;DHT22;9383;50.928;12.116;2022-07-09T00:16:45;14.40;97.20
18508;DHT22;9383;50.928;12.116;2022-07-09T00:19:11;14.30;97.20
18508;DHT22;9383;50.928;12.116;2022-07-09T00:21:37;14.30;97.30
18508;DHT22;9383;50.928;12.116;2022-07-09T00:24:04;14.30;97.30
18508;DHT22;9383;50.928;12.116;2022-07-09T00:26:31;14.30;97.30
18508;DHT22;9383;50.928;12.116;2022-07-09T00:28:57;14.30;97.40
18508;DHT22;9383;50.928;12.116;2022-07-09T00:31:23;14.20;97.40
18508;DHT22;9383;50.928;12.116;2022-07-09T00:33:49;14.20;97.40
18508;DHT22;9383;50.928;12.116;2022-07-09T00:36:15;14.20;97.40
18508;DHT22;9383;50.928;12.116;2022-07-09T00:38:41;14.20;97.40
18508;DHT22;9383;50.928;12.116;2022-07-09T00:41:07;14.10;97.40
18508;DHT22;9383;50.928;12.116;2022-07-09T00:43:34;14.10;97.20
18508;DHT22;9383;50.928;12.116;2022-07-09T00:46:04;14.10;97.40
18508;DHT22;9383;50.928;12.116;2022-07-09T00:48:30;14.10;97.20
18508;DHT22;9383;50.928;12.116;2022-07-09T00:53:25;14.10;97.20
18508;DHT22;9383;50.928;12.116;2022-07-09T00:58:19;13.90;97.10
18508;DHT22;9383;50.928;12.116;2022-07-09T01:00:47;14.00;97.30
18508;DHT22;9383;50.928;12.116;2022-07-09T01:03:13;13.90;97.20
18508;DHT22;9383;50.928;12.116;2022-07-09T01:05:39;13.90;97.20
18508;DHT22;9383;50.928;12.116;2022-07-09T01:08:06;13.90;97.20
18508;DHT22;9383;50.928;12.116;2022-07-09T01:10:34;13.80;97.20
18508;DHT22;9383;50.928;12.116;2022-07-09T01:13:01;13.70;97.10
18508;DHT22;9383;50.928;12.116;2022-07-09T01:15:29;13.70;97.10
18508;DHT22;9383;50.928;12.116;2022-07-09T01:17:56;13.70;97.10
18508;DHT22;9383;50.928;12.116;2022-07-09T01:20:28;13.60;97.10
18508;DHT22;9383;50.928;12.116;2022-07-09T01:22:58;13.60;96.90
18508;DHT22;9383;50.928;12.116;2022-07-09T01:25:45;13.50;97.40
18508;DHT22;9383;50.928;12.116;2022-07-09T01:28:11;13.50;97.00
18508;DHT22;9383;50.928;12.116;2022-07-09T01:30:39;13.50;97.20
18508;DHT22;9383;50.928;12.116;2022-07-09T01:33:07;13.50;97.20
18508;DHT22;9383;50.928;12.116;2022-07-09T01:35:33;13.20;96.90
18508;DHT22;9383;50.928;12.116;2022-07-09T01:37:59;13.40;97.20
18508;DHT22;9383;50.928;12.116;2022-07-09T01:40:26;13.40;97.20
18508;DHT22;9383;50.928;12.116;2022-07-09T01:42:52;13.30;97.20
18508;DHT22;9383;50.928;12.116;2022-07-09T01:45:19;13.30;97.20
18508;DHT22;9383;50.928;12.116;2022-07-09T01:47:45;14.30;97.40
18508;DHT22;9383;50.928;12.116;2022-07-09T01:50:12;13.20;97.30
18508;DHT22;9383;50.928;12.116;2022-07-09T01:55:05;13.20;97.20
18508;DHT22;9383;50.928;12.116;2022-07-09T01:57:31;13.20;97.50
18508;DHT22;9383;50.928;12.116;2022-07-09T01:59:57;13.10;97.50
18508;DHT22;9383;50.928;12.116;2022-07-09T02:02:23;13.10;97.50
18508;DHT22;9383;50.928;12.116;2022-07-09T02:04:49;13.10;97.60
18508;DHT22;9383;50.928;12.116;2022-07-09T02:07:15;13.20;97.60
18508;DHT22;9383;50.928;12.116;2022-07-09T02:09:42;13.10;97.60
18508;DHT22;9383;50.928;12.116;2022-07-09T02:12:08;12.90;97.40
18508;DHT22;9383;50.928;12.116;2022-07-09T02:14:34;11.90;97.40
18508;DHT22;9383;50.928;12.116;2022-07-09T02:17:00;12.90;97.70
18508;DHT22;9383;50.928;12.116;2022-07-09T02:24:19;12.90;97.90
18508;DHT22;9383;50.928;12.116;2022-07-09T02:26:46;12.90;98.30
18508;DHT22;9383;50.928;12.116;2022-07-09T02:29:12;12.90;98.40
18508;DHT22;9383;50.928;12.116;2022-07-09T02:31:37;12.90;98.40
18508;DHT22;9383;50.928;12.116;2022-07-09T02:34:04;12.80;98.40
18508;DHT22;9383;50.928;12.116;2022-07-09T02:36:30;12.80;98.50
18508;DHT22;9383;50.928;12.116;2022-07-09T02:38:56;12.80;98.50
18508;DHT22;9383;50.928;12.116;2022-07-09T02:41:22;12.80;98.60
18508;DHT22;9383;50.928;12.116;2022-07-09T02:43:48;12.80;98.60
18508;DHT22;9383;50.928;12.116;2022-07-09T02:46:14;12.80;98.60
18508;DHT22;9383;50.928;12.116;2022-07-09T02:48:41;12.80;98.70
18508;DHT22;9383;50.928;12.116;2022-07-09T02:51:07;12.80;98.70
18508;DHT22;9383;50.928;12.116;2022-07-09T02:53:33;12.80;98.80
18508;DHT22;9383;50.928;12.116;2022-07-09T02:55:59;12.80;98.80
18508;DHT22;9383;50.928;12.116;2022-07-09T02:58:25;12.80;98.80
18508;DHT22;9383;50.928;12.116;2022-07-09T03:00:52;12.80;99.10
18508;DHT22;9383;50.928;12.116;2022-07-09T03:03:18;12.80;98.90
18508;DHT22;9383;50.928;12.116;2022-07-09T03:05:44;12.80;99.00
18508;DHT22;9383;50.928;12.116;2022-07-09T03:08:10;12.90;99.00
18508;DHT22;9383;50.928;12.116;2022-07-09T03:10:36;12.80;99.10
18508;DHT22;9383;50.928;12.116;2022-07-09T03:13:02;12.80;99.10
18508;DHT22;9383;50.928;12.116;2022-07-09T03:15:28;12.80;99.20
18508;DHT22;9383;50.928;12.116;2022-07-09T03:17:54;12.90;99.30
18508;DHT22;9383;50.928;12.116;2022-07-09T03:20:20;12.80;99.30
18508;DHT22;9383;50.928;12.116;2022-07-09T03:25:13;12.90;99.20
18508;DHT22;9383;50.928;12.116;2022-07-09T03:27:39;12.90;99.40
18508;DHT22;9383;50.928;12.116;2022-07-09T03:30:05;12.90;99.50
18508;DHT22;9383;50.928;12.116;2022-07-09T03:32:32;12.90;99.40
18508;DHT22;9383;50.928;12.116;2022-07-09T03:34:58;12.90;99.70
18508;DHT22;9383;50.928;12.116;2022-07-09T03:37:24;13.00;99.70
18508;DHT22;9383;50.928;12.116;2022-07-09T03:39:50;13.00;99.70
18508;DHT22;9383;50.928;12.116;2022-07-09T03:42:16;13.00;99.80
18508;DHT22;9383;50.928;12.116;2022-07-09T03:44:42;13.00;99.90
18508;DHT22;9383;50.928;12.116;2022-07-09T03:49:35;13.10;99.90
18508;DHT22;9383;50.928;12.116;2022-07-09T03:52:02;13.20;99.90
18508;DHT22;9383;50.928;12.116;2022-07-09T03:54:28;13.10;99.90
18508;DHT22;9383;50.928;12.116;2022-07-09T03:56:54;13.20;99.90
18508;DHT22;9383;50.928;12.116;2022-07-09T03:59:20;13.20;99.90
18508;DHT22;9383;50.928;12.116;2022-07-09T04:01:46;13.10;99.90
18508;DHT22;9383;50.928;12.116;2022-07-09T04:04:12;13.30;99.90
18508;DHT22;9383;50.928;12.116;2022-07-09T04:06:39;13.40;99.90
18508;DHT22;9383;50.928;12.116;2022-07-09T04:09:05;13.40;99.90
18508;DHT22;9383;50.928;12.116;2022-07-09T04:11:31;13.40;99.90
18508;DHT22;9383;50.928;12.116;2022-07-09T04:13:58;13.40;99.90
18508;DHT22;9383;50.928;12.116;2022-07-09T04:16:26;13.40;99.90
18508;DHT22;9383;50.928;12.116;2022-07-09T04:18:53;13.50;99.90
18508;DHT22;9383;50.928;12.116;2022-07-09T04:21:19;13.40;99.90
18508;DHT22;9383;50.928;12.116;2022-07-09T04:23:48;13.60;99.90
18508;DHT22;9383;50.928;12.116;2022-07-09T04:26:15;13.70;99.90
18508;DHT22;9383;50.928;12.116;2022-07-09T04:31:09;13.70;99.90
18508;DHT22;9383;50.928;12.116;2022-07-09T04:33:35;13.80;99.90
18508;DHT22;9383;50.928;12.116;2022-07-09T04:38:27;13.90;99.90
18508;DHT22;9383;50.928;12.116;2022-07-09T04:40:54;14.00;99.90
18508;DHT22;9383;50.928;12.116;2022-07-09T04:43:21;14.10;99.90
18508;DHT22;9383;50.928;12.116;2022-07-09T04:45:47;14.10;99.90
18508;DHT22;9383;50.928;12.116;2022-07-09T04:48:13;14.20;99.90
18508;DHT22;9383;50.928;12.116;2022-07-09T04:50:39;14.30;99.90
18508;DHT22;9383;50.928;12.116;2022-07-09T04:53:05;14.30;99.90
18508;DHT22;9383;50.928;12.116;2022-07-09T04:57:58;14.50;99.90
18508;DHT22;9383;50.928;12.116;2022-07-09T05:00:24;14.60;99.90
18508;DHT22;9383;50.928;12.116;2022-07-09T05:02:50;14.60;99.90
18508;DHT22;9383;50.928;12.116;2022-07-09T05:05:16;14.70;99.90
18508;DHT22;9383;50.928;12.116;2022-07-09T05:07:42;14.80;99.90
18508;DHT22;9383;50.928;12.116;2022-07-09T05:10:09;14.90;99.90
18508;DHT22;9383;50.928;12.116;2022-07-09T05:12:35;15.00;99.90
18508;DHT22;9383;50.928;12.116;2022-07-09T05:15:02;15.00;99.90
18508;DHT22;9383;50.928;12.116;2022-07-09T05:17:33;15.10;99.90
18508;DHT22;9383;50.928;12.116;2022-07-09T05:20:01;15.20;99.90
18508;DHT22;9383;50.928;12.116;2022-07-09T05:22:32;15.30;99.90
18508;DHT22;9383;50.928;12.116;2022-07-09T05:24:59;15.30;99.90
18508;DHT22;9383;50.928;12.116;2022-07-09T05:27:25;15.40;99.90
18508;DHT22;9383;50.928;12.116;2022-07-09T05:29:52;15.40;99.90
18508;DHT22;9383;50.928;12.116;2022-07-09T05:32:18;15.50;99.90
18508;DHT22;9383;50.928;12.116;2022-07-09T05:34:44;15.60;99.90
18508;DHT22;9383;50.928;12.116;2022-07-09T05:37:10;15.70;99.90
18508;DHT22;9383;50.928;12.116;2022-07-09T05:39:39;15.80;99.90
18508;DHT22;9383;50.928;12.116;2022-07-09T05:42:06;15.80;99.90
18508;DHT22;9383;50.928;12.116;2022-07-09T05:44:32;15.90;99.90
18508;DHT22;9383;50.928;12.116;2022-07-09T05:46:58;16.00;99.90
18508;DHT22;9383;50.928;12.116;2022-07-09T05:49:25;16.00;99.90
18508;DHT22;9383;50.928;12.116;2022-07-09T05:51:51;16.10;99.90
18508;DHT22;9383;50.928;12.116;2022-07-09T05:54:17;16.10;99.90
18508;DHT22;9383;50.928;12.116;2022-07-09T05:56:43;16.20;99.90
18508;DHT22;9383;50.928;12.116;2022-07-09T05:59:09;16.20;99.90
18508;DHT22;9383;50.928;12.116;2022-07-09T06:01:35;16.40;99.90
18508;DHT22;9383;50.928;12.116;2022-07-09T06:04:05;16.50;99.80
18508;DHT22;9383;50.928;12.116;2022-07-09T06:06:33;16.50;99.60
18508;DHT22;9383;50.928;12.116;2022-07-09T06:08:59;16.60;99.40
18508;DHT22;9383;50.928;12.116;2022-07-09T06:11:25;16.70;99.30
18508;DHT22;9383;50.928;12.116;2022-07-09T06:13:52;16.70;99.10
18508;DHT22;9383;50.928;12.116;2022-07-09T06:16:18;16.80;99.00
18508;DHT22;9383;50.928;12.116;2022-07-09T06:18:44;16.90;98.90
18508;DHT22;9383;50.928;12.116;2022-07-09T06:21:10;16.90;98.60
18508;DHT22;9383;50.928;12.116;2022-07-09T06:23:36;17.00;98.60
18508;DHT22;9383;50.928;12.116;2022-07-09T06:26:02;17.00;98.50
18508;DHT22;9383;50.928;12.116;2022-07-09T06:30:54;17.10;98.10
18508;DHT22;9383;50.928;12.116;2022-07-09T06:33:20;17.10;98.30
18508;DHT22;9383;50.928;12.116;2022-07-09T06:35:46;17.10;98.20
18508;DHT22;9383;50.928;12.116;2022-07-09T06:38:13;17.20;98.20
18508;DHT22;9383;50.928;12.116;2022-07-09T06:40:39;17.20;98.10
18508;DHT22;9383;50.928;12.116;2022-07-09T06:43:06;17.20;98.00
18508;DHT22;9383;50.928;12.116;2022-07-09T06:45:34;17.30;98.00
18508;DHT22;9383;50.928;12.116;2022-07-09T06:48:00;17.30;97.90
18508;DHT22;9383;50.928;12.116;2022-07-09T06:50:26;17.30;97.90
18508;DHT22;9383;50.928;12.116;2022-07-09T06:52:53;17.40;97.90
18508;DHT22;9383;50.928;12.116;2022-07-09T06:55:19;17.40;97.80
18508;DHT22;9383;50.928;12.116;2022-07-09T06:57:45;17.40;97.80
18508;DHT22;9383;50.928;12.116;2022-07-09T07:00:11;17.40;97.80
18508;DHT22;9383;50.928;12.116;2022-07-09T07:02:38;17.40;97.70
18508;DHT22;9383;50.928;12.116;2022-07-09T07:05:04;17.50;97.70
18508;DHT22;9383;50.928;12.116;2022-07-09T07:07:31;17.50;97.70
18508;DHT22;9383;50.928;12.116;2022-07-09T07:09:57;17.60;97.60
18508;DHT22;9383;50.928;12.116;2022-07-09T07:12:24;17.60;97.30
18508;DHT22;9383;50.928;12.116;2022-07-09T07:14:50;17.60;97.50
18508;DHT22;9383;50.928;12.116;2022-07-09T07:17:16;17.70;97.50
18508;DHT22;9383;50.928;12.116;2022-07-09T07:19:42;17.70;97.50
18508;DHT22;9383;50.928;12.116;2022-07-09T07:22:08;17.70;97.40
18508;DHT22;9383;50.928;12.116;2022-07-09T07:24:35;17.70;97.40
18508;DHT22;9383;50.928;12.116;2022-07-09T07:27:01;17.80;97.40
18508;DHT22;9383;50.928;12.116;2022-07-09T07:29:27;17.80;97.30
18508;DHT22;9383;50.928;12.116;2022-07-09T07:31:53;17.90;97.30
18508;DHT22;9383;50.928;12.116;2022-07-09T07:34:19;17.90;97.30
18508;DHT22;9383;50.928;12.116;2022-07-09T07:36:48;17.90;97.30
18508;DHT22;9383;50.928;12.116;2022-07-09T07:39:16;18.00;97.30
18508;DHT22;9383;50.928;12.116;2022-07-09T07:41:42;18.00;97.20
18508;DHT22;9383;50.928;12.116;2022-07-09T07:44:08;18.10;97.20
18508;DHT22;9383;50.928;12.116;2022-07-09T07:46:34;18.10;97.20
18508;DHT22;9383;50.928;12.116;2022-07-09T07:49:00;18.20;97.10
18508;DHT22;9383;50.928;12.116;2022-07-09T07:51:26;18.30;97.10
18508;DHT22;9383;50.928;12.116;2022-07-09T07:53:52;18.30;97.00
18508;DHT22;9383;50.928;12.116;2022-07-09T07:56:18;18.40;97.00
18508;DHT22;9383;50.928;12.116;2022-07-09T07:58:44;18.40;96.90
18508;DHT22;9383;50.928;12.116;2022-07-09T08:01:10;18.50;96.80
18508;DHT22;9383;50.928;12.116;2022-07-09T08:03:36;18.50;96.60
18508;DHT22;9383;50.928;12.116;2022-07-09T08:06:02;18.60;96.70
18508;DHT22;9383;50.928;12.116;2022-07-09T08:08:29;18.70;96.70
18508;DHT22;9383;50.928;12.116;2022-07-09T08:10:55;18.70;96.70
18508;DHT22;9383;50.928;12.116;2022-07-09T08:13:21;18.80;96.50
18508;DHT22;9383;50.928;12.116;2022-07-09T08:15:47;18.90;96.40
18508;DHT22;9383;50.928;12.116;2022-07-09T08:18:13;18.80;96.00
18508;DHT22;9383;50.928;12.116;2022-07-09T08:20:41;19.00;96.00
18508;DHT22;9383;50.928;12.116;2022-07-09T08:23:08;19.00;95.60
18508;DHT22;9383;50.928;12.116;2022-07-09T08:25:35;19.00;95.40
18508;DHT22;9383;50.928;12.116;2022-07-09T08:28:02;19.00;95.30
18508;DHT22;9383;50.928;12.116;2022-07-09T08:32:55;19.00;95.00
18508;DHT22;9383;50.928;12.116;2022-07-09T08:35:21;19.00;95.00
18508;DHT22;9383;50.928;12.116;2022-07-09T08:37:47;19.00;95.00
18508;DHT22;9383;50.928;12.116;2022-07-09T08:40:14;19.00;95.00
18508;DHT22;9383;50.928;12.116;2022-07-09T08:42:40;19.00;95.10
18508;DHT22;9383;50.928;12.116;2022-07-09T08:45:08;19.00;95.10
18508;DHT22;9383;50.928;12.116;2022-07-09T08:47:38;19.00;95.20
18508;DHT22;9383;50.928;12.116;2022-07-09T08:50:06;17.50;94.80
18508;DHT22;9383;50.928;12.116;2022-07-09T08:52:35;19.10;95.20
18508;DHT22;9383;50.928;12.116;2022-07-09T08:55:02;19.10;95.20
18508;DHT22;9383;50.928;12.116;2022-07-09T08:57:29;19.10;95.00
18508;DHT22;9383;50.928;12.116;2022-07-09T08:59:55;19.10;94.90
18508;DHT22;9383;50.928;12.116;2022-07-09T09:02:21;19.20;94.80
18508;DHT22;9383;50.928;12.116;2022-07-09T09:04:47;19.20;94.70
18508;DHT22;9383;50.928;12.116;2022-07-09T09:07:17;19.20;94.60
18508;DHT22;9383;50.928;12.116;2022-07-09T09:09:45;19.20;94.60
18508;DHT22;9383;50.928;12.116;2022-07-09T09:12:12;19.00;94.40
18508;DHT22;9383;50.928;12.116;2022-07-09T09:14:39;19.20;94.90
18508;DHT22;9383;50.928;12.116;2022-07-09T09:17:14;19.10;95.00
18508;DHT22;9383;50.928;12.116;2022-07-09T09:19:40;19.20;95.10
18508;DHT22;9383;50.928;12.116;2022-07-09T09:22:07;19.10;95.20
18508;DHT22;9383;50.928;12.116;2022-07-09T09:24:34;19.10;95.30
18508;DHT22;9383;50.928;12.116;2022-07-09T09:27:01;19.20;95.40
18508;DHT22;9383;50.928;12.116;2022-07-09T09:29:28;19.10;95.50
18508;DHT22;9383;50.928;12.116;2022-07-09T09:31:55;19.20;95.70
18508;DHT22;9383;50.928;12.116;2022-07-09T09:34:22;19.20;95.70
18508;DHT22;9383;50.928;12.116;2022-07-09T09:36:50;19.20;95.60
18508;DHT22;9383;50.928;12.116;2022-07-09T09:39:28;19.10;95.60
18508;DHT22;9383;50.928;12.116;2022-07-09T09:41:59;19.20;95.70
18508;DHT22;9383;50.928;12.116;2022-07-09T09:44:33;19.20;95.70
18508;DHT22;9383;50.928;12.116;2022-07-09T09:47:07;19.10;95.70
18508;DHT22;9383;50.928;12.116;2022-07-09T09:49:34;19.10;95.70
18508;DHT22;9383;50.928;12.116;2022-07-09T09:52:05;19.10;95.80
18508;DHT22;9383;50.928;12.116;2022-07-09T09:54:39;19.10;95.90
18508;DHT22;9383;50.928;12.116;2022-07-09T09:57:10;19.00;95.70
18508;DHT22;9383;50.928;12.116;2022-07-09T09:59:41;19.00;95.90
18508;DHT22;9383;50.928;12.116;2022-07-09T10:02:09;19.10;95.90
18508;DHT22;9383;50.928;12.116;2022-07-09T10:04:36;19.00;96.00
18508;DHT22;9383;50.928;12.116;2022-07-09T10:07:04;19.00;96.10
18508;DHT22;9383;50.928;12.116;2022-07-09T10:09:32;19.00;96.10
18508;DHT22;9383;50.928;12.116;2022-07-09T10:11:58;18.90;96.10
18508;DHT22;9383;50.928;12.116;2022-07-09T10:16:52;18.90;96.20
18508;DHT22;9383;50.928;12.116;2022-07-09T10:19:25;18.80;96.20
18508;DHT22;9383;50.928;12.116;2022-07-09T10:21:54;18.70;96.40
18508;DHT22;9383;50.928;12.116;2022-07-09T10:24:32;18.60;96.80
18508;DHT22;9383;50.928;12.116;2022-07-09T10:27:06;18.60;96.60
18508;DHT22;9383;50.928;12.116;2022-07-09T10:29:55;18.60;96.70
18508;DHT22;9383;50.928;12.116;2022-07-09T10:32:32;18.50;96.80
18508;DHT22;9383;50.928;12.116;2022-07-09T10:35:00;18.50;96.80
18508;DHT22;9383;50.928;12.116;2022-07-09T10:37:44;18.50;96.90
18508;DHT22;9383;50.928;12.116;2022-07-09T10:40:15;18.60;97.20
18508;DHT22;9383;50.928;12.116;2022-07-09T10:42:44;18.60;97.20
18508;DHT22;9383;50.928;12.116;2022-07-09T10:45:27;18.60;97.40
18508;DHT22;9383;50.928;12.116;2022-07-09T10:47:58;18.70;97.50
18508;DHT22;9383;50.928;12.116;2022-07-09T10:50:27;18.70;97.60
18508;DHT22;9383;50.928;12.116;2022-07-09T10:52:55;18.80;97.60
18508;DHT22;9383;50.928;12.116;2022-07-09T10:55:24;18.80;97.70
18508;DHT22;9383;50.928;12.116;2022-07-09T10:57:52;18.80;97.60
18508;DHT22;9383;50.928;12.116;2022-07-09T11:00:23;18.90;97.60
18508;DHT22;9383;50.928;12.116;2022-07-09T11:03:04;18.90;97.50
18508;DHT22;9383;50.928;12.116;2022-07-09T11:05:44;19.00;97.70
18508;DHT22;9383;50.928;12.116;2022-07-09T11:08:11;19.10;97.60
18508;DHT22;9383;50.928;12.116;2022-07-09T11:10:39;19.10;97.50
18508;DHT22;9383;50.928;12.116;2022-07-09T11:13:06;18.50;97.30
18508;DHT22;9383;50.928;12.116;2022-07-09T11:15:36;18.60;97.40
18508;DHT22;9383;50.928;12.116;2022-07-09T11:20:38;19.40;97.60
18508;DHT22;9383;50.928;12.116;2022-07-09T11:23:08;19.50;97.60
18508;DHT22;9383;50.928;12.116;2022-07-09T11:25:54;19.60;97.60
18508;DHT22;9383;50.928;12.116;2022-07-09T11:28:40;19.70;97.60
18508;DHT22;9383;50.928;12.116;2022-07-09T11:31:26;19.80;97.20
18508;DHT22;9383;50.928;12.116;2022-07-09T11:34:12;19.80;97.20
18508;DHT22;9383;50.928;12.116;2022-07-09T11:36:58;19.90;96.90
18508;DHT22;9383;50.928;12.116;2022-07-09T11:39:51;21.40;96.90
18508;DHT22;9383;50.928;12.116;2022-07-09T11:42:18;20.00;96.50
18508;DHT22;9383;50.928;12.116;2022-07-09T11:44:57;20.10;96.10
18508;DHT22;9383;50.928;12.116;2022-07-09T11:47:37;20.20;95.70
18508;DHT22;9383;50.928;12.116;2022-07-09T11:50:15;20.20;95.90
18508;DHT22;9383;50.928;12.116;2022-07-09T11:52:47;20.10;95.40
18508;DHT22;9383;50.928;12.116;2022-07-09T11:55:17;20.30;95.40
18508;DHT22;9383;50.928;12.116;2022-07-09T11:57:54;20.30;95.30
18508;DHT22;9383;50.928;12.116;2022-07-09T12:00:26;20.30;95.30
18508;DHT22;9383;50.928;12.116;2022-07-09T12:02:55;20.30;95.30
18508;DHT22;9383;50.928;12.116;2022-07-09T12:05:34;20.30;95.20
18508;DHT22;9383;50.928;12.116;2022-07-09T12:08:06;20.40;95.30
18508;DHT22;9383;50.928;12.116;2022-07-09T12:10:37;20.40;95.20
18508;DHT22;9383;50.928;12.116;2022-07-09T12:13:06;20.40;95.10
18508;DHT22;9383;50.928;12.116;2022-07-09T12:15:35;20.40;94.90
18508;DHT22;9383;50.928;12.116;2022-07-09T12:18:01;20.40;94.70
18508;DHT22;9383;50.928;12.116;2022-07-09T12:20:29;20.40;94.70
18508;DHT22;9383;50.928;12.116;2022-07-09T12:22:57;20.40;94.60
18508;DHT22;9383;50.928;12.116;2022-07-09T12:25:23;20.50;94.70
18508;DHT22;9383;50.928;12.116;2022-07-09T12:27:50;20.50;94.70
18508;DHT22;9383;50.928;12.116;2022-07-09T12:30:17;20.40;94.70
18508;DHT22;9383;50.928;12.116;2022-07-09T12:35:11;20.40;94.50
18508;DHT22;9383;50.928;12.116;2022-07-09T12:37:38;20.40;94.60
18508;DHT22;9383;50.928;12.116;2022-07-09T12:40:07;20.40;94.60
18508;DHT22;9383;50.928;12.116;2022-07-09T12:42:36;20.40;94.70
18508;DHT22;9383;50.928;12.116;2022-07-09T12:45:03;20.40;94.70
18508;DHT22;9383;50.928;12.116;2022-07-09T12:47:30;20.40;94.70
18508;DHT22;9383;50.928;12.116;2022-07-09T12:49:56;20.40;94.80
18508;DHT22;9383;50.928;12.116;2022-07-09T12:52:22;20.40;94.90
18508;DHT22;9383;50.928;12.116;2022-07-09T12:54:48;20.40;94.90
18508;DHT22;9383;50.928;12.116;2022-07-09T12:57:15;20.50;94.90
18508;DHT22;9383;50.928;12.116;2022-07-09T12:59:41;20.50;94.80
18508;DHT22;9383;50.928;12.116;2022-07-09T13:02:07;20.50;94.70
18508;DHT22;9383;50.928;12.116;2022-07-09T13:04:34;20.50;94.90
18508;DHT22;9383;50.928;12.116;2022-07-09T13:07:03;18.90;94.30
18508;DHT22;9383;50.928;12.116;2022-07-09T13:09:29;20.60;94.50
18508;DHT22;9383;50.928;12.116;2022-07-09T13:11:55;20.60;94.30
18508;DHT22;9383;50.928;12.116;2022-07-09T13:14:21;20.60;94.20
18508;DHT22;9383;50.928;12.116;2022-07-09T13:16:47;20.70;94.20
18508;DHT22;9383;50.928;12.116;2022-07-09T13:19:13;20.60;94.10
18508;DHT22;9383;50.928;12.116;2022-07-09T13:24:05;20.70;93.80
18508;DHT22;9383;50.928;12.116;2022-07-09T13:26:31;20.80;93.90
18508;DHT22;9383;50.928;12.116;2022-07-09T13:31:24;20.80;93.70
18508;DHT22;9383;50.928;12.116;2022-07-09T13:33:50;20.80;93.90
18508;DHT22;9383;50.928;12.116;2022-07-09T13:36:17;21.00;93.50
18508;DHT22;9383;50.928;12.116;2022-07-09T13:38:43;21.00;93.10
18508;DHT22;9383;50.928;12.116;2022-07-09T13:41:09;21.00;92.60
18508;DHT22;9383;50.928;12.116;2022-07-09T13:43:35;21.10;92.70
18508;DHT22;9383;50.928;12.116;2022-07-09T13:46:02;24.50;93.50
18508;DHT22;9383;50.928;12.116;2022-07-09T13:50:56;21.10;91.20
18508;DHT22;9383;50.928;12.116;2022-07-09T13:53:22;21.20;90.80
18508;DHT22;9383;50.928;12.116;2022-07-09T13:55:48;21.20;90.20
18508;DHT22;9383;50.928;12.116;2022-07-09T13:58:14;21.20;90.00
18508;DHT22;9383;50.928;12.116;2022-07-09T14:00:41;21.20;89.70
18508;DHT22;9383;50.928;12.116;2022-07-09T14:03:07;21.20;90.00
18508;DHT22;9383;50.928;12.116;2022-07-09T14:05:34;21.10;90.00
18508;DHT22;9383;50.928;12.116;2022-07-09T14:08:02;21.10;90.00
18508;DHT22;9383;50.928;12.116;2022-07-09T14:10:28;21.10;90.00
18508;DHT22;9383;50.928;12.116;2022-07-09T14:12:54;21.10;90.10
18508;DHT22;9383;50.928;12.116;2022-07-09T14:15:20;21.10;89.30
18508;DHT22;9383;50.928;12.116;2022-07-09T14:17:47;21.10;88.10
18508;DHT22;9383;50.928;12.116;2022-07-09T14:20:13;21.10;87.80
18508;DHT22;9383;50.928;12.116;2022-07-09T14:22:39;21.00;84.90
18508;DHT22;9383;50.928;12.116;2022-07-09T14:25:05;20.60;87.70
18508;DHT22;9383;50.928;12.116;2022-07-09T14:27:31;20.20;90.00
18508;DHT22;9383;50.928;12.116;2022-07-09T14:29:57;19.80;91.20
18508;DHT22;9383;50.928;12.116;2022-07-09T14:32:23;19.50;92.20
18508;DHT22;9383;50.928;12.116;2022-07-09T14:34:50;19.30;92.70
18508;DHT22;9383;50.928;12.116;2022-07-09T14:37:16;19.00;93.30
18508;DHT22;9383;50.928;12.116;2022-07-09T14:39:42;18.80;93.50
18508;DHT22;9383;50.928;12.116;2022-07-09T14:42:08;18.60;94.20
18508;DHT22;9383;50.928;12.116;2022-07-09T14:44:34;18.40;94.70
18508;DHT22;9383;50.928;12.116;2022-07-09T14:47:00;18.30;95.30
18508;DHT22;9383;50.928;12.116;2022-07-09T14:49:27;18.30;95.20
18508;DHT22;9383;50.928;12.116;2022-07-09T14:51:55;18.30;95.30
18508;DHT22;9383;50.928;12.116;2022-07-09T14:54:21;18.40;95.20
18508;DHT22;9383;50.928;12.116;2022-07-09T14:56:47;18.50;95.40
18508;DHT22;9383;50.928;12.116;2022-07-09T14:59:14;18.40;95.40
18508;DHT22;9383;50.928;12.116;2022-07-09T15:01:45;18.60;95.40
18508;DHT22;9383;50.928;12.116;2022-07-09T15:04:11;18.60;95.40
18508;DHT22;9383;50.928;12.116;2022-07-09T15:06:37;18.70;95.30
18508;DHT22;9383;50.928;12.116;2022-07-09T15:09:03;18.80;95.20
18508;DHT22;9383;50.928;12.116;2022-07-09T15:11:29;18.80;95.00
18508;DHT22;9383;50.928;12.116;2022-07-09T15:13:56;18.90;94.80
18508;DHT22;9383;50.928;12.116;2022-07-09T15:16:22;18.90;94.70
18508;DHT22;9383;50.928;12.116;2022-07-09T15:18:48;18.90;94.60
18508;DHT22;9383;50.928;12.116;2022-07-09T15:21:16;19.00;94.60
18508;DHT22;9383;50.928;12.116;2022-07-09T15:23:42;18.90;94.50
18508;DHT22;9383;50.928;12.116;2022-07-09T15:26:09;19.00;94.40
18508;DHT22;9383;50.928;12.116;2022-07-09T15:28:35;18.80;94.40
18508;DHT22;9383;50.928;12.116;2022-07-09T15:31:01;19.10;94.30
18508;DHT22;9383;50.928;12.116;2022-07-09T15:33:27;19.20;94.20
18508;DHT22;9383;50.928;12.116;2022-07-09T15:35:53;19.20;94.10
18508;DHT22;9383;50.928;12.116;2022-07-09T15:38:19;19.30;93.70
18508;DHT22;9383;50.928;12.116;2022-07-09T15:40:45;19.30;93.60
18508;DHT22;9383;50.928;12.116;2022-07-09T15:43:11;19.30;93.60
18508;DHT22;9383;50.928;12.116;2022-07-09T15:45:37;19.40;93.80
18508;DHT22;9383;50.928;12.116;2022-07-09T15:48:04;19.40;93.60
18508;DHT22;9383;50.928;12.116;2022-07-09T15:50:31;19.60;93.60
18508;DHT22;9383;50.928;12.116;2022-07-09T15:52:58;19.60;93.50
18508;DHT22;9383;50.928;12.116;2022-07-09T15:55:25;19.70;93.30
18508;DHT22;9383;50.928;12.116;2022-07-09T15:57:51;19.80;93.10
18508;DHT22;9383;50.928;12.116;2022-07-09T16:00:17;19.90;93.30
18508;DHT22;9383;50.928;12.116;2022-07-09T16:02:49;20.00;92.90
18508;DHT22;9383;50.928;12.116;2022-07-09T16:05:18;20.00;92.60
18508;DHT22;9383;50.928;12.116;2022-07-09T16:07:45;20.10;92.30
18508;DHT22;9383;50.928;12.116;2022-07-09T16:10:11;20.20;92.20
18508;DHT22;9383;50.928;12.116;2022-07-09T16:12:37;20.20;91.80
18508;DHT22;9383;50.928;12.116;2022-07-09T16:15:16;20.30;91.20
18508;DHT22;9383;50.928;12.116;2022-07-09T16:17:43;20.40;91.10